Milo, Maine
Current Conditions -  °F | °C
As of 2:53 AM on Friday 24 Oct 2014 (Local Time) from KMLT Reporting Station
Light Rain Light Rain  
Wind Chill: 38°   Ceiling: 5000
Heat Index: 44°   Visibility: 4mi
Dew Point: 41°   Wind: 12mph
Humidity: 89%   Direction: 10°N
Pressure: 29.77"   Gusts: 18mph
Location:  45.25°N, 68.98°W
Report Text: KMLT 240653Z AUTO 01010G16KT 4SM -RA BR BKN050 OVC075 07/05 A2977 RMK AO2 SLP088 P0011 T00670050
Loading
Personal Weather Stations






























Interactive Weather Map
Tropical Storm Tracking
New forecast layout! Learn more

10-Day Weather Forecast

Advertisements
Track Severe Weather on mobile